Pagrindinis puslapis
METAR-TAF:

METAR-TAF

Oro uostai :

Oro pajėgų bazė

Linšiopingas, Švedija

platuma: 58-24N, ilguma: 015-31E, Aukštis: 93 m

Dabartinis oras

Ataskaita buvo paskelbta 24 minutes, ne 06:20 UTC
Vėjas 11 kt iš Vakarų/Pietvakarių
Temperatūra 19°C
Drėgmė 73%
Slėgis 1023 hPa
Matomumas 10 km arba daugiau
nėra debesų žemiau 1500 m ir nėra kamuolinių lietaus debesų

METAR: ESCF 110620Z 24011KT CAVOK 19/14 Q1023

Laikas: 08:44 (06:44 UTC)

Prognozė

Ataskaita buvo paskelbta 2 valandos ir 14 minutes, ne 04:30 UTC
Prognozė galioja nuo 11 metu 05 UTC su 11 metu 14 UTC
Vėjas 10 kt iš Pietvakarių su gūsio iki 18 kt
Matomumas 10 km arba daugiau
nėra debesų žemiau 1500 m ir nėra kamuolinių lietaus debesų
Tapsmas
nuo 11 metu 07 UTC su 11 metu 09 UTC
Vėjas 12 kt iš Vakarų su gūsio iki 22 kt

TAF: ESCF 110430Z 1105/1114 23010G18KT CAVOK BECMG 1107/1109 26012G22KT RMK MIL

Orai ataskaitas ir orų prognozės (METAR, TAF).

turimą stotys yra geltonos ir raudonos taškus žemėlapyje.

Perkelti pele per norėdami pamatyti stoties vardą.

Tada spustelėkite, norėdami matyti oro stebėjimo ir prognozės.

Norėdami pakeisti žemėlapį: spustelėkite ant žalios mygtukų su juodo kryžiaus žemyn,; žalią mygtuką su brūkšneliu, jei norite nutolinti; arba žalių rodyklių gretimoms žemėlapius.


METAR-TAF: